createdAt,value
2022-08-11T00:04:26.333Z,5.80
2022-08-11T00:09:57.702Z,2.67
2022-08-11T00:15:39.455Z,6.32
2022-08-11T00:21:12.468Z,5.35
2022-08-11T00:26:49.085Z,3.10
2022-08-11T00:32:20.501Z,5.32
2022-08-11T00:37:54.449Z,3.70
2022-08-11T00:44:02.931Z,3.00
2022-08-11T00:49:51.884Z,4.38
2022-08-11T00:55:38.055Z,3.22
2022-08-11T01:01:10.565Z,4.03
2022-08-11T01:12:45.389Z,2.28
2022-08-11T01:18:47.332Z,4.28
2022-08-11T01:24:56.213Z,2.95
2022-08-11T01:30:56.834Z,3.25
2022-08-11T01:36:56.702Z,3.42
2022-08-11T01:43:29.177Z,2.22
2022-08-11T01:49:58.539Z,3.25
2022-08-11T01:55:37.504Z,2.28
2022-08-11T02:01:30.926Z,1.98
2022-08-11T02:12:55.022Z,3.40
2022-08-11T02:18:53.609Z,2.05
2022-08-11T02:24:51.634Z,2.08
2022-08-11T02:30:25.941Z,3.72
2022-08-11T02:36:21.111Z,2.75
2022-08-11T02:42:32.706Z,2.92
2022-08-11T02:48:48.542Z,5.00
2022-08-11T02:54:33.057Z,2.13
2022-08-11T03:00:09.680Z,3.67
2022-08-11T03:06:11.059Z,2.42
2022-08-11T03:12:17.693Z,3.17
2022-08-11T03:18:26.974Z,3.80
2022-08-11T03:24:25.059Z,3.83
2022-08-11T03:30:16.502Z,3.67
2022-08-11T03:36:10.692Z,3.17
2022-08-11T03:42:10.063Z,2.08
2022-08-11T03:48:10.739Z,3.60
2022-08-11T03:53:54.109Z,2.47
2022-08-11T03:59:56.838Z,2.60
2022-08-11T04:05:58.910Z,2.63
2022-08-11T04:11:33.059Z,2.35
2022-08-11T04:17:40.684Z,2.47
2022-08-11T04:24:33.278Z,3.13
2022-08-11T04:29:36.174Z,4.32
2022-08-11T04:35:51.544Z,2.97
2022-08-11T04:42:12.750Z,2.72
2022-08-11T04:48:23.631Z,3.95
2022-08-11T04:54:28.418Z,3.28
2022-08-11T05:00:31.269Z,2.88
2022-08-11T05:06:47.921Z,3.58
2022-08-11T05:12:21.150Z,4.40
2022-08-11T05:18:17.646Z,3.53
2022-08-11T05:24:13.288Z,7.05
2022-08-11T05:30:05.651Z,15.75
2022-08-11T05:36:02.576Z,10.60
2022-08-11T05:48:32.948Z,14.13
2022-08-11T05:54:28.928Z,144.30
2022-08-11T06:00:10.661Z,18.10
2022-08-11T06:05:44.836Z,8.10
2022-08-11T06:11:18.082Z,8.57
2022-08-11T06:16:50.979Z,5.38
2022-08-11T06:22:23.488Z,7.72
2022-08-11T06:27:57.019Z,10.50
2022-08-11T06:33:32.255Z,5.45
2022-08-11T06:39:10.084Z,5.47
2022-08-11T06:45:05.245Z,5.88
2022-08-11T06:50:55.135Z,4.00
2022-08-11T06:57:06.646Z,11.52
2022-08-11T07:03:11.428Z,5.55
2022-08-11T07:09:00.906Z,4.47
2022-08-11T07:14:51.651Z,4.57
2022-08-11T07:20:48.114Z,6.05
2022-08-11T07:26:41.076Z,3.55
2022-08-11T07:32:24.906Z,9.20
2022-08-11T07:38:04.843Z,6.40
2022-08-11T07:43:40.053Z,3.27
2022-08-11T07:49:30.287Z,4.05
2022-08-11T07:55:13.001Z,4.10
2022-08-11T08:01:09.901Z,3.83
2022-08-11T08:07:00.494Z,5.28
2022-08-11T08:12:50.844Z,5.80
2022-08-11T08:18:26.522Z,4.90
2022-08-11T08:23:58.938Z,4.70
2022-08-11T08:29:52.767Z,5.10
2022-08-11T08:35:24.469Z,9.60
2022-08-11T08:40:56.438Z,13.45
2022-08-11T08:46:31.338Z,20.70
2022-08-11T08:52:29.614Z,21.67
2022-08-11T08:58:00.828Z,30.45
2022-08-11T09:04:05.182Z,5.60
2022-08-11T09:09:28.837Z,11.93
2022-08-11T09:15:06.097Z,5.25
2022-08-11T09:20:38.746Z,5.93
2022-08-11T09:26:30.787Z,5.07
2022-08-11T09:32:02.418Z,2.97
2022-08-11T09:37:54.356Z,3.78
2022-08-11T09:43:46.682Z,2.75
2022-08-11T09:49:20.006Z,2.28
2022-08-11T09:54:53.019Z,7.38
2022-08-11T10:00:33.312Z,9.02
2022-08-11T10:06:34.363Z,9.60
2022-08-11T10:12:10.116Z,7.07
2022-08-11T10:18:04.335Z,5.57
2022-08-11T10:24:01.270Z,3.05
2022-08-11T10:29:57.350Z,4.13
2022-08-11T10:35:32.197Z,3.97
2022-08-11T10:41:22.938Z,8.45
2022-08-11T10:47:12.671Z,3.67
2022-08-11T10:53:04.230Z,2.88
2022-08-11T10:58:49.954Z,2.03
2022-08-11T11:04:42.163Z,8.60
2022-08-11T11:10:13.225Z,2.90
2022-08-11T11:16:05.630Z,3.53
2022-08-11T11:21:39.176Z,13.07
2022-08-11T11:27:31.260Z,173.57
2022-08-11T11:33:23.619Z,476.60
2022-08-11T11:38:59.178Z,84.30
2022-08-11T11:44:31.680Z,24.90
2022-08-11T11:50:03.322Z,14.02
2022-08-11T11:55:35.733Z,22.80
2022-08-11T12:01:25.531Z,8.82
2022-08-11T12:07:16.917Z,15.45
2022-08-11T12:13:06.997Z,6.43
2022-08-11T12:18:39.761Z,8.68
2022-08-11T12:24:29.774Z,4.75
2022-08-11T12:30:07.518Z,9.32
2022-08-11T12:35:40.044Z,6.25
2022-08-11T12:41:49.444Z,13.30
2022-08-11T12:47:21.373Z,5.45
2022-08-11T12:52:54.290Z,3.10
2022-08-11T12:58:26.410Z,3.80
2022-08-11T13:09:47.586Z,141.90
2022-08-11T13:15:21.975Z,436.97
2022-08-11T13:20:56.192Z,320.45
2022-08-11T13:26:43.553Z,294.02
2022-08-11T13:32:21.121Z,285.33
2022-08-11T13:38:19.726Z,244.35
2022-08-11T13:43:45.529Z,234.35
2022-08-11T13:49:17.608Z,224.68
2022-08-11T13:54:48.773Z,174.13
2022-08-11T14:00:26.890Z,177.32
2022-08-11T14:06:01.855Z,129.13
2022-08-11T14:12:21.053Z,101.25
2022-08-11T14:17:48.222Z,96.00
2022-08-11T14:23:29.330Z,79.55
2022-08-11T14:29:08.777Z,60.50
2022-08-11T14:34:42.374Z,60.67
2022-08-11T14:40:33.588Z,68.97
2022-08-11T14:46:23.455Z,48.67
2022-08-11T14:51:57.310Z,8.20
2022-08-11T14:57:55.650Z,4.35
2022-08-11T15:03:26.294Z,67.97
2022-08-11T15:09:00.558Z,108.57
2022-08-11T15:14:50.367Z,19.33
2022-08-11T15:20:48.040Z,23.10
2022-08-11T15:26:54.283Z,42.83
2022-08-11T15:32:45.116Z,22.58
2022-08-11T15:38:16.947Z,21.42
2022-08-11T15:44:12.026Z,15.13
2022-08-11T15:50:11.755Z,16.80
2022-08-11T16:01:28.492Z,18.55
2022-08-11T16:07:03.755Z,11.68
2022-08-11T16:12:40.999Z,10.35
2022-08-11T16:18:12.336Z,10.38
2022-08-11T16:23:47.328Z,7.55
2022-08-11T16:29:19.716Z,8.38
2022-08-11T16:35:36.361Z,16.08
2022-08-11T16:41:52.671Z,7.20
2022-08-11T16:47:53.850Z,5.85
2022-08-11T16:53:17.714Z,9.90
2022-08-11T16:59:14.439Z,6.57
2022-08-11T17:05:10.040Z,6.30
2022-08-11T17:11:16.810Z,5.32
2022-08-11T17:16:49.647Z,6.70
2022-08-11T17:22:42.323Z,4.43
2022-08-11T17:28:15.164Z,3.42
2022-08-11T17:34:05.343Z,8.20
2022-08-11T17:39:38.737Z,3.55
2022-08-11T17:45:29.282Z,3.63
2022-08-11T17:51:05.091Z,1.45
2022-08-11T17:56:54.650Z,6.40
2022-08-11T18:02:48.612Z,5.72
2022-08-11T18:08:39.109Z,5.72
2022-08-11T18:14:32.522Z,4.30
2022-08-11T18:26:14.258Z,3.45
2022-08-11T18:32:07.435Z,4.47
2022-08-11T18:38:04.145Z,2.72
2022-08-11T18:43:57.081Z,2.80
2022-08-11T18:50:04.191Z,3.92
2022-08-11T18:55:55.511Z,3.63
2022-08-11T19:01:46.176Z,3.60
2022-08-11T19:07:37.652Z,2.28
2022-08-11T19:13:28.425Z,2.08
2022-08-11T19:19:18.606Z,7.50
2022-08-11T19:25:09.298Z,3.47
2022-08-11T19:30:59.676Z,2.50
2022-08-11T19:36:50.343Z,3.42
2022-08-11T19:42:41.294Z,2.33
2022-08-11T19:48:32.761Z,5.60
2022-08-11T19:54:23.586Z,3.00
2022-08-11T20:00:13.810Z,4.18
2022-08-11T20:06:04.863Z,3.97
2022-08-11T20:11:59.239Z,5.03
2022-08-11T20:17:53.985Z,7.93
2022-08-11T20:23:44.235Z,3.20
2022-08-11T20:29:37.905Z,3.25
2022-08-11T20:35:37.193Z,3.15
2022-08-11T20:41:28.999Z,6.70
2022-08-11T20:47:18.880Z,4.50
2022-08-11T20:53:08.971Z,4.47
2022-08-11T20:59:17.642Z,7.75
2022-08-11T21:05:09.754Z,5.60
2022-08-11T21:11:07.158Z,4.72
2022-08-11T21:16:59.011Z,3.90
2022-08-11T21:23:05.848Z,3.88
2022-08-11T21:28:58.642Z,4.18
2022-08-11T21:34:50.246Z,1.80
2022-08-11T21:40:41.078Z,5.13
2022-08-11T21:46:31.224Z,5.55
2022-08-11T21:52:26.113Z,4.72
2022-08-11T21:58:16.780Z,3.20
2022-08-11T22:04:06.571Z,4.25
2022-08-11T22:09:56.693Z,3.85
2022-08-11T22:15:46.285Z,2.83
2022-08-11T22:22:02.413Z,1.92
2022-08-11T22:27:46.653Z,3.58
2022-08-11T22:33:36.987Z,5.60
2022-08-11T22:39:35.348Z,2.20
2022-08-11T22:45:25.331Z,4.18
2022-08-11T22:51:16.654Z,3.72
2022-08-11T22:57:07.329Z,4.68
2022-08-11T23:02:57.533Z,1.73
2022-08-11T23:08:47.123Z,2.45
2022-08-11T23:14:40.214Z,1.98
2022-08-11T23:20:44.394Z,2.10
2022-08-11T23:26:43.757Z,4.65
2022-08-11T23:32:33.203Z,2.83
2022-08-11T23:38:23.025Z,5.00
2022-08-11T23:44:13.172Z,2.50
2022-08-11T23:50:04.055Z,2.78
2022-08-11T23:55:54.363Z,2.08
